Time;durP1;ratioP1;P1;durP2;ratioP2;P2;SDS_P1;SDS_P2;PMS_P1;PMS_P2;Temp;Humidity;BMP_temperature;BMP_pressure;BME280_temperature;BME280_humidity;BME280_pressure;Samples;Min_cycle;Max_cycle;Signal;HPM_P1;HPM_P2
2022/06/02 00:01:01;;;;;;;64.03;13.43;;;11.80;99.90;;;;;;5014953;28;20211;-52
2022/06/02 00:03:36;;;;;;;26.90;6.37;;;11.90;99.90;;;;;;5018925;28;20326;-53
2022/06/02 00:06:21;;;;;;;52.53;10.57;;;11.60;99.90;;;;;;5018600;28;20213;-52
2022/06/02 00:09:04;;;;;;;50.47;10.77;;;11.90;99.90;;;;;;5024715;28;20279;-53
2022/06/02 00:12:04;;;;;;;48.50;9.50;;;11.50;99.90;;;;;;5021893;28;20180;-53
2022/06/02 00:14:51;;;;;;;44.47;8.73;;;11.80;99.90;;;;;;5018948;28;20189;-53
2022/06/02 00:17:29;;;;;;;48.90;9.27;;;11.60;99.90;;;;;;5018494;28;20643;-53
2022/06/02 00:20:26;;;;;;;37.23;7.23;;;11.60;99.90;;;;;;5017308;28;20196;-53
2022/06/02 00:23:25;;;;;;;49.47;9.43;;;11.40;99.90;;;;;;5021488;28;20602;-53
2022/06/02 00:25:57;;;;;;;59.23;10.70;;;11.50;99.90;;;;;;5023404;28;20656;-53
2022/06/02 00:28:44;;;;;;;55.50;10.20;;;11.50;99.90;;;;;;5018275;28;20227;-53
2022/06/02 00:31:39;;;;;;;50.30;9.00;;;11.50;99.90;;;;;;5023386;28;20225;-53
2022/06/02 00:34:36;;;;;;;47.53;8.80;;;11.50;99.90;;;;;;5016450;28;20713;-53
2022/06/02 00:37:16;;;;;;;43.43;7.87;;;11.40;99.90;;;;;;5025529;28;20584;-53
2022/06/02 00:39:42;;;;;;;64.33;11.30;;;11.50;99.90;;;;;;5016308;28;20267;-53
2022/06/02 00:42:25;;;;;;;46.23;8.47;;;11.40;99.90;;;;;;5018710;28;20248;-53
2022/06/02 00:44:59;;;;;;;32.10;6.13;;;11.50;99.90;;;;;;5018863;28;20582;-53
2022/06/02 00:47:33;;;;;;;43.40;7.90;;;11.50;99.90;;;;;;5018600;28;20254;-52
2022/06/02 00:50:29;;;;;;;47.30;8.50;;;11.50;99.90;;;;;;5017174;28;20250;-53
2022/06/02 00:53:13;;;;;;;49.23;8.90;;;11.40;99.90;;;;;;5020147;28;20311;-53
2022/06/02 00:59:21;;;;;;;52.50;9.23;;;11.30;99.90;;;;;;5018768;28;20278;-53
2022/06/02 01:01:47;;;;;;;47.40;8.47;;;11.20;99.90;;;;;;5019950;28;20255;-53
2022/06/02 01:04:16;;;;;;;55.70;9.53;;;11.10;99.90;;;;;;5023926;28;20240;-53
2022/06/02 01:06:48;;;;;;;54.83;9.63;;;11.10;99.90;;;;;;5015915;28;20303;-53
2022/06/02 01:09:34;;;;;;;54.73;9.70;;;11.00;99.90;;;;;;5017641;28;20212;-53
2022/06/02 01:12:13;;;;;;;54.43;9.37;;;11.10;99.90;;;;;;5018295;28;20223;-53
2022/06/02 01:14:56;;;;;;;49.90;9.07;;;11.10;99.90;;;;;;5014776;28;20184;-53
2022/06/02 01:18:05;;;;;;;42.60;7.87;;;11.00;99.90;;;;;;5019362;28;20299;-53
2022/06/02 01:20:58;;;;;;;26.70;5.33;;;11.30;99.90;;;;;;5016066;28;20364;-52
2022/06/02 01:24:02;;;;;;;56.47;9.93;;;11.20;99.90;;;;;;5022945;28;20184;-52
2022/06/02 01:26:56;;;;;;;51.87;9.07;;;11.10;99.90;;;;;;5020201;28;20208;-55
2022/06/02 01:29:43;;;;;;;41.97;7.47;;;11.10;99.90;;;;;;5014559;28;20344;-53
2022/06/02 01:32:11;;;;;;;44.47;7.80;;;11.30;99.90;;;;;;5028107;28;20744;-53
2022/06/02 01:35:02;;;;;;;49.57;8.57;;;11.10;99.90;;;;;;5019289;28;20305;-53
2022/06/02 01:37:44;;;;;;;43.80;7.50;;;11.10;99.90;;;;;;5016933;28;20259;-53
2022/06/02 01:40:29;;;;;;;67.00;11.30;;;11.10;99.90;;;;;;5023027;28;20219;-52
2022/06/02 01:43:08;;;;;;;42.63;7.73;;;11.10;99.90;;;;;;5016850;28;20224;-53
2022/06/02 01:45:39;;;;;;;40.07;7.23;;;11.10;99.90;;;;;;5013124;28;20216;-52
2022/06/02 01:48:29;;;;;;;50.33;9.00;;;11.10;99.90;;;;;;5016963;28;20311;-52
2022/06/02 01:51:10;;;;;;;46.00;7.93;;;11.00;99.90;;;;;;5016318;28;20384;-53
2022/06/02 01:53:57;;;;;;;52.70;9.50;;;11.00;99.90;;;;;;5021236;28;20257;-53
2022/06/02 01:56:52;;;;;;;63.80;11.20;;;11.00;99.90;;;;;;5018483;28;20246;-53
2022/06/02 01:59:40;;;;;;;56.93;9.67;;;11.00;99.90;;;;;;5029564;28;20568;-53
2022/06/02 02:02:20;;;;;;;46.53;8.33;;;10.90;99.90;;;;;;5018144;28;20617;-53
2022/06/02 02:05:22;;;;;;;55.83;9.47;;;10.80;99.90;;;;;;5017941;28;20220;-53
2022/06/02 02:08:06;;;;;;;60.43;10.30;;;10.80;99.90;;;;;;5016005;28;20665;-52
2022/06/02 02:11:09;;;;;;;51.73;8.90;;;10.80;99.90;;;;;;5021006;28;20215;-52
2022/06/02 02:13:58;;;;;;;41.03;7.30;;;10.90;99.90;;;;;;5022603;28;20216;-52
2022/06/02 02:16:38;;;;;;;41.80;7.33;;;10.90;99.90;;;;;;5024143;28;20215;-53
2022/06/02 02:19:13;;;;;;;41.00;7.27;;;10.80;99.90;;;;;;5021032;28;20207;-52
2022/06/02 02:21:49;;;;;;;52.07;9.17;;;10.90;99.90;;;;;;5018435;28;20216;-52
2022/06/02 02:24:45;;;;;;;43.47;7.57;;;10.80;99.90;;;;;;5020089;28;20307;-52
2022/06/02 02:27:22;;;;;;;40.73;7.03;;;10.90;99.90;;;;;;5018423;28;20605;-53
2022/06/02 02:30:12;;;;;;;39.10;7.13;;;11.00;99.90;;;;;;5018755;28;20668;-53
2022/06/02 02:32:59;;;;;;;58.20;10.20;;;11.00;99.90;;;;;;5016239;28;20177;-53
2022/06/02 02:35:39;;;;;;;43.67;7.67;;;10.90;99.90;;;;;;5020429;28;20211;-53
2022/06/02 02:38:23;;;;;;;60.50;10.47;;;10.90;99.90;;;;;;5011439;28;20713;-53
2022/06/02 02:40:57;;;;;;;48.73;8.57;;;10.80;99.90;;;;;;5017396;28;20216;-52
2022/06/02 02:43:30;;;;;;;50.90;8.80;;;10.80;99.90;;;;;;5014452;28;20260;-53
2022/06/02 02:46:03;;;;;;;49.83;8.70;;;10.90;99.90;;;;;;5016646;28;20224;-53
2022/06/02 02:48:41;;;;;;;37.10;6.67;;;10.80;99.90;;;;;;5013323;28;20717;-53
2022/06/02 02:51:38;;;;;;;43.00;7.63;;;8.80;99.90;;;;;;5010763;28;20219;-52
2022/06/02 02:54:26;;;;;;;37.70;6.80;;;10.70;99.90;;;;;;5017400;28;20263;-53
2022/06/02 02:57:05;;;;;;;48.67;8.33;;;10.90;99.90;;;;;;5015665;28;20224;-53
2022/06/02 02:59:51;;;;;;;51.90;9.13;;;10.70;99.90;;;;;;5015326;28;20219;-52
2022/06/02 03:02:20;;;;;;;51.33;8.93;;;10.60;99.90;;;;;;5012797;28;20184;-53
2022/06/02 03:05:10;;;;;;;56.77;9.70;;;10.70;99.90;;;;;;5018376;28;20712;-53
2022/06/02 03:07:36;;;;;;;57.30;10.20;;;10.70;99.90;;;;;;5018422;28;20740;-53
2022/06/02 03:10:08;;;;;;;51.13;9.17;;;10.70;99.90;;;;;;5015490;28;20589;-53
2022/06/02 03:12:57;;;;;;;40.87;7.23;;;10.70;99.90;;;;;;5011304;28;20220;-52
2022/06/02 03:15:41;;;;;;;42.47;7.40;;;10.80;99.90;;;;;;5013527;28;20247;-53
2022/06/02 03:18:24;;;;;;;71.03;12.10;;;10.80;99.90;;;;;;5013192;28;20219;-53
2022/06/02 03:21:13;;;;;;;37.30;6.80;;;10.80;99.90;;;;;;5021940;28;20226;-53
2022/06/02 03:24:19;;;;;;;50.00;9.00;;;10.80;99.90;;;;;;5015657;28;20185;-53
2022/06/02 03:26:51;;;;;;;52.27;9.17;;;10.70;99.90;;;;;;5017171;28;20191;-53
2022/06/02 03:29:56;;;;;;;46.77;8.20;;;10.60;99.90;;;;;;5015917;28;20436;-52
2022/06/02 03:32:31;;;;;;;64.73;11.10;;;10.80;99.90;;;;;;5021910;28;20220;-52
2022/06/02 03:35:19;;;;;;;45.50;8.07;;;10.80;99.90;;;;;;5020751;28;20215;-52
2022/06/02 03:38:15;;;;;;;34.80;6.30;;;10.70;99.90;;;;;;5023064;28;20736;-53
2022/06/02 03:41:17;;;;;;;65.23;10.97;;;10.70;99.90;;;;;;5018919;28;20216;-53
2022/06/02 03:44:06;;;;;;;46.53;8.07;;;10.70;99.90;;;;;;5018066;28;20979;-53
2022/06/02 03:46:47;;;;;;;63.53;10.77;;;10.70;99.90;;;;;;5016812;28;20220;-53
2022/06/02 03:49:32;;;;;;;51.83;9.13;;;10.70;99.90;;;;;;5020425;28;20238;-53
2022/06/02 03:52:14;;;;;;;66.83;11.40;;;10.70;99.90;;;;;;5013268;28;20217;-53
2022/06/02 03:54:47;;;;;;;32.20;5.67;;;11.90;99.90;;;;;;5018918;28;20681;-53
2022/06/02 03:57:42;;;;;;;132.80;21.23;;;10.70;99.90;;;;;;5000396;28;20236;-54
2022/06/02 04:00:27;;;;;;;65.93;11.10;;;10.70;99.90;;;;;;5002773;28;20243;-54
2022/06/02 04:03:01;;;;;;;153.87;25.40;;;10.70;99.90;;;;;;4999403;28;20243;-54
2022/06/02 04:05:45;;;;;;;122.53;19.87;;;10.60;99.90;;;;;;4993740;28;20197;-54
2022/06/02 04:08:33;;;;;;;158.67;25.20;;;10.70;99.90;;;;;;5001201;28;20715;-54
2022/06/02 04:11:22;;;;;;;115.93;19.07;;;10.80;99.90;;;;;;4998204;28;20957;-54
2022/06/02 04:13:47;;;;;;;135.20;21.70;;;10.70;99.90;;;;;;4996220;28;20218;-54
2022/06/02 04:16:39;;;;;;;102.40;16.63;;;10.70;99.90;;;;;;5004319;28;20976;-54
2022/06/02 04:22:11;;;;;;;105.47;17.30;;;10.80;99.90;;;;;;5002906;28;20207;-54
2022/06/02 04:24:49;;;;;;;57.73;9.87;;;10.90;99.90;;;;;;4997512;28;20215;-54
2022/06/02 04:27:22;;;;;;;66.30;11.07;;;10.90;99.90;;;;;;4998178;28;20307;-54
2022/06/02 04:30:19;;;;;;;88.60;15.00;;;11.00;99.90;;;;;;4998405;28;22518;-54
2022/06/02 04:32:50;;;;;;;114.30;18.57;;;11.10;99.90;;;;;;5001822;28;20484;-54
2022/06/02 04:35:35;;;;;;;181.13;28.87;;;10.90;99.90;;;;;;4997550;28;20255;-54
2022/06/02 04:38:30;;;;;;;120.60;19.93;;;11.00;99.90;;;;;;4996346;28;20331;-55
2022/06/02 04:41:17;;;;;;;93.60;15.40;;;11.00;99.90;;;;;;4995836;28;20218;-54
2022/06/02 04:43:53;;;;;;;123.50;19.67;;;10.90;99.90;;;;;;4997706;28;20200;-54
2022/06/02 04:46:46;;;;;;;159.20;25.53;;;11.20;99.90;;;;;;4998728;28;20224;-54
2022/06/02 04:49:35;;;;;;;148.00;23.60;;;10.90;99.90;;;;;;5000018;28;20728;-54
2022/06/02 04:52:11;;;;;;;106.77;17.37;;;11.30;99.90;;;;;;5005577;28;20223;-54
2022/06/02 04:54:57;;;;;;;130.77;20.73;;;11.00;99.90;;;;;;4998608;28;20216;-54
2022/06/02 04:57:33;;;;;;;136.57;21.90;;;11.30;99.90;;;;;;5007104;28;20235;-54
2022/06/02 05:00:04;;;;;;;68.77;11.70;;;11.10;99.90;;;;;;5003343;28;20237;-54
2022/06/02 05:02:40;;;;;;;70.93;11.73;;;11.10;99.90;;;;;;5013547;28;20944;-54
2022/06/02 05:05:21;;;;;;;147.80;23.57;;;11.10;99.90;;;;;;5001994;28;20172;-54
2022/06/02 05:08:27;;;;;;;101.70;16.40;;;11.10;99.90;;;;;;4997139;28;21030;-54
2022/06/02 05:11:12;;;;;;;72.87;12.27;;;11.20;99.90;;;;;;5008005;28;20216;-54
2022/06/02 05:13:56;;;;;;;128.83;20.03;;;11.20;99.90;;;;;;5008217;28;20599;-54
2022/06/02 05:16:41;;;;;;;83.53;13.70;;;11.50;99.90;;;;;;5006757;28;20299;-54
2022/06/02 05:19:37;;;;;;;106.30;17.03;;;11.40;99.90;;;;;;5007051;28;20219;-54
2022/06/02 05:22:20;;;;;;;62.33;10.50;;;11.30;99.90;;;;;;5003083;28;20204;-54
2022/06/02 05:25:19;;;;;;;103.00;16.57;;;11.30;99.90;;;;;;4996524;28;20217;-54
2022/06/02 05:28:13;;;;;;;59.77;10.00;;;11.50;99.90;;;;;;5000889;28;20385;-53
2022/06/02 05:31:15;;;;;;;92.50;14.83;;;11.50;99.90;;;;;;5010155;28;20605;-54
2022/06/02 05:33:41;;;;;;;94.93;15.13;;;;;;;;;;5007190;28;20651;-54
2022/06/02 05:36:27;;;;;;;280.30;44.23;;;11.80;99.90;;;;;;4964996;28;22216;-53
2022/06/02 05:39:23;;;;;;;69.23;11.43;;;11.70;99.90;;;;;;4959873;28;20371;-53
2022/06/02 05:42:00;;;;;;;101.07;16.80;;;11.80;99.90;;;;;;5003074;28;20192;-54
2022/06/02 05:44:49;;;;;;;169.90;26.70;;;11.70;99.90;;;;;;5003102;28;20191;-53
2022/06/02 05:47:30;;;;;;;156.00;24.73;;;11.80;99.90;;;;;;4999555;28;20220;-54
2022/06/02 05:50:25;;;;;;;64.07;11.00;;;11.80;99.90;;;;;;5009611;28;20751;-54
2022/06/02 05:53:16;;;;;;;64.57;10.83;;;11.80;99.90;;;;;;4995083;28;20231;-54
2022/06/02 05:56:14;;;;;;;107.60;17.03;;;12.00;99.90;;;;;;4989974;28;20291;-54
2022/06/02 05:58:54;;;;;;;159.53;25.70;;;12.10;99.90;;;;;;4995744;28;20237;-53
2022/06/02 06:01:48;;;;;;;406.67;67.27;;;12.40;99.90;;;;;;4977461;28;21995;-53
2022/06/02 06:04:32;;;;;;;76.03;12.37;;;12.30;99.90;;;;;;4990723;28;20220;-53
2022/06/02 06:07:06;;;;;;;153.73;24.03;;;12.40;99.90;;;;;;5001902;28;20220;-53
2022/06/02 06:09:42;;;;;;;66.13;10.90;;;12.40;99.90;;;;;;5018648;28;20213;-53
2022/06/02 06:12:20;;;;;;;67.00;10.90;;;12.50;99.90;;;;;;5017368;28;20240;-54
2022/06/02 06:14:58;;;;;;;255.30;42.40;;;12.30;99.90;;;;;;4994061;28;20218;-53
2022/06/02 06:17:49;;;;;;;218.30;35.10;;;12.50;99.90;;;;;;4995655;28;20200;-53
2022/06/02 06:20:37;;;;;;;96.30;15.33;;;12.60;99.90;;;;;;5014848;28;20251;-53
2022/06/02 06:23:20;;;;;;;61.53;10.57;;;12.60;99.90;;;;;;5009674;28;20208;-53
2022/06/02 06:26:24;;;;;;;151.63;25.53;;;12.70;99.90;;;;;;4996563;28;20320;-53
2022/06/02 06:29:32;;;;;;;126.17;20.90;;;12.80;99.90;;;;;;5005711;28;20223;-53
2022/06/02 06:32:21;;;;;;;122.80;19.90;;;13.10;99.90;;;;;;4953658;28;20218;-53
2022/06/02 06:34:56;;;;;;;144.83;23.47;;;13.10;99.90;;;;;;5009324;28;20224;-53
2022/06/02 06:37:52;;;;;;;164.33;26.47;;;13.10;99.90;;;;;;4991429;28;20212;-54
2022/06/02 06:40:28;;;;;;;140.17;22.37;;;13.30;99.90;;;;;;4994455;28;20720;-54
2022/06/02 06:42:53;;;;;;;212.20;34.20;;;13.20;99.90;;;;;;4989227;28;20208;-53
2022/06/02 06:45:25;;;;;;;173.30;28.00;;;13.30;99.90;;;;;;4983090;28;20519;-53
2022/06/02 06:47:59;;;;;;;68.30;11.77;;;13.50;99.90;;;;;;4994817;28;20236;-52
2022/06/02 06:50:52;;;;;;;104.07;16.80;;;13.60;99.90;;;;;;4998715;28;20333;-52
2022/06/02 06:53:36;;;;;;;164.50;26.60;;;13.60;95.70;;;;;;4990596;28;20225;-52
2022/06/02 06:56:25;;;;;;;213.07;34.77;;;13.80;99.90;;;;;;4991582;28;21327;-52
2022/06/02 06:59:08;;;;;;;137.27;22.00;;;13.90;99.90;;;;;;4995920;28;20235;-54
2022/06/02 07:01:52;;;;;;;108.83;18.43;;;13.70;72.90;;;;;;4998954;28;20641;-54
2022/06/02 07:05:01;;;;;;;104.22;17.05;;;13.80;66.70;;;;;;5006886;28;20208;-53
2022/06/02 07:07:55;;;;;;;122.47;20.10;;;14.10;32.50;;;;;;5001910;28;20288;-53
2022/06/02 07:10:48;;;;;;;103.63;17.17;;;13.90;34.70;;;;;;5002942;28;20693;-53
2022/06/02 07:13:31;;;;;;;89.78;14.77;;;14.00;52.90;;;;;;5000933;28;20625;-53
2022/06/02 07:16:12;;;;;;;114.43;17.98;;;14.20;25.90;;;;;;4998840;28;20224;-54
2022/06/02 07:18:49;;;;;;;82.03;14.13;;;14.10;66.90;;;;;;5006917;28;20212;-54
2022/06/02 07:21:43;;;;;;;79.82;13.40;;;14.50;26.40;;;;;;5007553;28;20511;-54
2022/06/02 07:24:36;;;;;;;60.15;10.65;;;14.00;13.20;;;;;;5011376;28;20878;-54
2022/06/02 07:27:08;;;;;;;206.20;34.17;;;14.30;1.00;;;;;;4994537;28;20722;-54
2022/06/02 07:29:57;;;;;;;96.63;16.30;;;14.30;1.00;;;;;;5003250;28;20554;-54
2022/06/02 07:32:51;;;;;;;188.45;30.88;;;14.50;1.00;;;;;;4988138;28;20185;-53
2022/06/02 07:35:51;;;;;;;90.43;15.23;;;14.60;1.00;;;;;;4998692;28;20693;-53
2022/06/02 07:38:44;;;;;;;183.57;29.67;;;14.60;1.00;;;;;;5003053;28;20822;-53
2022/06/02 07:41:10;;;;;;;87.37;14.83;;;;;;;;;;4998283;28;20224;-53
2022/06/02 07:44:06;;;;;;;204.90;33.78;;;14.90;1.00;;;;;;4999315;28;20710;-53
2022/06/02 07:47:15;;;;;;;131.13;22.70;;;15.00;1.00;;;;;;4996582;28;20259;-53
2022/06/02 07:50:09;;;;;;;130.70;21.92;;;15.00;1.00;;;;;;4964297;28;20319;-53
2022/06/02 07:52:51;;;;;;;74.25;13.00;;;15.10;1.00;;;;;;4997692;28;20265;-53
2022/06/02 07:55:18;;;;;;;107.00;19.35;;;;;;;;;;4998308;28;20609;-53
2022/06/02 07:58:12;;;;;;;189.02;31.95;;;15.30;1.00;;;;;;4987306;28;20209;-53
2022/06/02 08:01:05;;;;;;;150.70;25.85;;;15.50;25.90;;;;;;4995113;28;20216;-53
2022/06/02 08:03:58;;;;;;;220.32;37.00;;;15.90;1.00;;;;;;4988054;28;20215;-53
2022/06/02 08:06:42;;;;;;;194.27;33.35;;;15.70;1.00;;;;;;4999273;28;20213;-53
2022/06/02 08:09:33;;;;;;;147.20;25.02;;;15.80;99.90;;;;;;4996836;28;20226;-53
2022/06/02 08:11:58;;;;;;;225.40;38.33;;;16.10;1.00;;;;;;4990374;28;20227;-53
2022/06/02 08:14:49;;;;;;;110.43;19.17;;;15.90;1.00;;;;;;5004348;28;20601;-53
2022/06/02 08:17:16;;;;;;;123.63;21.42;;;;;;;;;;5003968;28;20254;-53
2022/06/02 08:19:57;;;;;;;149.25;25.38;;;16.10;1.00;;;;;;4991846;28;20220;-53
2022/06/02 08:22:45;;;;;;;104.97;18.00;;;16.00;1.00;;;;;;5002849;28;20700;-53
2022/06/02 08:25:23;;;;;;;183.60;31.75;;;16.10;1.00;;;;;;4992628;28;20212;-53
2022/06/02 08:28:05;;;;;;;217.30;37.88;;;16.10;99.90;;;;;;4994470;28;20583;-53
2022/06/02 08:30:44;;;;;;;154.07;27.30;;;16.10;99.90;;;;;;4992219;28;20208;-53
2022/06/02 08:33:15;;;;;;;178.68;31.30;;;16.10;31.20;;;;;;4995626;28;20924;-53
2022/06/02 08:36:02;;;;;;;127.07;23.35;;;16.10;99.90;;;;;;4997201;28;22994;-53
2022/06/02 08:38:49;;;;;;;208.25;36.50;;;15.80;1.00;;;;;;4993558;28;20208;-53
2022/06/02 08:41:36;;;;;;;178.48;30.23;;;15.90;1.00;;;;;;4998609;28;20223;-53
2022/06/02 08:44:31;;;;;;;123.90;22.27;;;15.90;93.90;;;;;;5001628;28;20602;-53
2022/06/02 08:47:35;;;;;;;147.25;26.00;;;16.10;1.00;;;;;;4993521;28;20216;-54
2022/06/02 08:50:34;;;;;;;93.05;16.92;;;16.30;1.00;;;;;;4998489;28;20212;-53
2022/06/02 08:53:28;;;;;;;182.13;30.58;;;16.70;1.00;;;;;;5001274;28;20213;-53
2022/06/02 08:56:12;;;;;;;97.50;17.45;;;16.70;1.00;;;;;;4994707;28;20308;-53
2022/06/02 08:58:52;;;;;;;91.75;16.45;;;16.80;1.00;;;;;;4993224;28;20220;-53
2022/06/02 09:01:42;;;;;;;118.80;20.73;;;16.50;99.90;;;;;;5006465;28;20451;-53
2022/06/02 09:04:32;;;;;;;88.90;16.17;;;16.20;12.00;;;;;;5003360;28;20211;-53
2022/06/02 09:07:28;;;;;;;277.30;48.97;;;16.10;1.00;;;;;;4990332;28;20263;-53
2022/06/02 09:10:38;;;;;;;139.30;25.45;;;16.10;1.00;;;;;;4996000;28;20606;-53
2022/06/02 09:13:09;;;;;;;147.50;25.90;;;16.10;1.00;;;;;;4979241;28;20217;-53
2022/06/02 09:15:56;;;;;;;141.02;24.38;;;16.20;1.00;;;;;;4992215;28;20270;-53
2022/06/02 09:18:40;;;;;;;311.90;51.58;;;16.20;1.00;;;;;;4989119;28;20316;-53
2022/06/02 09:21:21;;;;;;;295.20;47.10;;;16.30;96.90;;;;;;4991800;28;20231;-53
2022/06/02 09:24:01;;;;;;;143.32;24.85;;;16.30;36.30;;;;;;5000250;28;20197;-53
2022/06/02 09:26:53;;;;;;;164.20;29.13;;;16.40;99.90;;;;;;4994034;28;20204;-53
2022/06/02 09:29:24;;;;;;;148.95;24.92;;;16.50;1.00;;;;;;5003814;28;20326;-53
2022/06/02 09:32:00;;;;;;;115.05;20.42;;;16.80;99.90;;;;;;5007724;28;20479;-53
2022/06/02 09:34:48;;;;;;;102.63;17.67;;;16.80;1.00;;;;;;5002001;28;20650;-53
2022/06/02 09:37:32;;;;;;;223.90;38.50;;;17.00;1.00;;;;;;5007760;28;20491;-53
2022/06/02 09:40:35;;;;;;;106.88;18.90;;;16.90;1.00;;;;;;5000894;28;20208;-55
2022/06/02 09:43:09;;;;;;;144.77;25.20;;;17.10;1.00;;;;;;5006258;28;20681;-53
2022/06/02 09:45:59;;;;;;;182.90;32.45;;;17.00;99.90;;;;;;5002271;28;20427;-53
2022/06/02 09:48:27;;;;;;;157.43;27.25;;;17.20;1.00;;;;;;5007658;28;20585;-53
2022/06/02 09:51:22;;;;;;;123.93;21.55;;;17.40;1.00;;;;;;5007841;28;20212;-53
2022/06/02 09:54:18;;;;;;;154.90;27.35;;;17.60;1.00;;;;;;4998739;28;20183;-54
2022/06/02 09:57:55;;;;;;;193.45;35.35;;;17.50;1.00;;;;;;4991746;28;20283;-53
2022/06/02 10:00:11;;;;;;;171.60;30.55;;;17.40;1.00;;;;;;4997035;28;20230;-53
2022/06/02 10:02:58;;;;;;;121.85;21.77;;;17.60;1.00;;;;;;4998718;28;20526;-53
2022/06/02 10:05:41;;;;;;;170.45;30.02;;;17.40;1.00;;;;;;5000986;28;20287;-53
2022/06/02 10:08:20;;;;;;;86.55;16.15;;;17.50;1.00;;;;;;5011701;28;20212;-53
2022/06/02 10:11:17;;;;;;;159.23;27.85;;;17.30;1.00;;;;;;5000903;28;20422;-52
2022/06/02 10:14:04;;;;;;;143.80;25.25;;;17.30;1.00;;;;;;5007270;28;20685;-53
2022/06/02 10:16:49;;;;;;;144.50;26.33;;;;;;;;;;4996828;28;20725;-53
2022/06/02 10:19:27;;;;;;;96.72;17.50;;;17.50;1.00;;;;;;5012372;28;20212;-53
2022/06/02 10:22:12;;;;;;;139.80;25.50;;;17.70;1.00;;;;;;4998157;28;23045;-53
2022/06/02 10:25:07;;;;;;;191.10;33.95;;;17.90;1.00;;;;;;5006400;28;20648;-53
2022/06/02 10:28:08;;;;;;;140.35;24.35;;;18.10;1.00;;;;;;4999907;28;20286;-53
2022/06/02 10:30:34;;;;;;;119.35;20.20;;;;;;;;;;4996036;28;20212;-53
2022/06/02 10:33:09;;;;;;;194.23;32.65;;;18.60;1.00;;;;;;4994121;28;20739;-53
2022/06/02 10:36:16;;;;;;;180.48;30.60;;;18.50;99.90;;;;;;4988827;28;20561;-53
2022/06/02 10:39:02;;;;;;;148.63;25.95;;;18.60;99.90;;;;;;4992948;28;20212;-53
2022/06/02 10:41:59;;;;;;;119.63;21.85;;;18.80;99.90;;;;;;5007858;28;20683;-52
2022/06/02 10:45:10;;;;;;;105.78;19.35;;;19.00;99.90;;;;;;5013301;28;20213;-52
2022/06/02 10:48:10;;;;;;;115.85;21.75;;;19.00;99.90;;;;;;5021262;28;20303;-52
2022/06/02 10:51:05;;;;;;;105.70;19.95;;;19.00;99.90;;;;;;5023485;28;20644;-52
2022/06/02 10:53:59;;;;;;;86.13;16.40;;;19.10;1.00;;;;;;5020485;28;20184;-53
2022/06/02 10:56:49;;;;;;;149.40;27.30;;;19.40;99.90;;;;;;5010407;28;20550;-53
2022/06/02 10:59:47;;;;;;;99.03;19.05;;;19.20;99.90;;;;;;5009272;28;20221;-52
2022/06/02 11:02:50;;;;;;;116.80;22.67;;;19.10;99.90;;;;;;5013161;28;20296;-52
2022/06/02 11:05:30;;;;;;;149.68;28.38;;;18.90;99.90;;;;;;5009821;28;20234;-52
2022/06/02 11:07:59;;;;;;;93.85;18.48;;;19.00;99.90;;;;;;5010434;28;20291;-53
2022/06/02 11:10:27;;;;;;;122.35;24.38;;;19.40;1.00;;;;;;5012663;28;20219;-53
2022/06/02 11:13:29;;;;;;;88.90;17.55;;;19.50;1.00;;;;;;5015357;28;20619;-52
2022/06/02 11:16:13;;;;;;;95.25;19.00;;;19.50;99.90;;;;;;5013629;28;20223;-53
2022/06/02 11:18:54;;;;;;;102.78;20.40;;;19.40;99.90;;;;;;5012655;28;20227;-52
2022/06/02 11:21:41;;;;;;;116.40;22.30;;;19.50;1.00;;;;;;5011488;28;20263;-54
2022/06/02 11:24:39;;;;;;;92.55;18.38;;;18.80;99.90;;;;;;5009622;28;20208;-53
2022/06/02 11:27:39;;;;;;;83.13;16.75;;;18.80;99.90;;;;;;5011527;28;20215;-52
2022/06/02 11:30:05;;;;;;;114.05;21.73;;;;;;;;;;5002727;28;20293;-53
2022/06/02 11:32:56;;;;;;;105.30;21.10;;;18.70;99.90;;;;;;5011159;28;20287;-52
2022/06/02 11:35:58;;;;;;;92.97;18.20;;;18.90;99.90;;;;;;5010715;28;20299;-53
2022/06/02 11:38:50;;;;;;;101.32;19.50;;;19.10;99.90;;;;;;5009123;28;20235;-51
2022/06/02 11:41:44;;;;;;;123.50;24.38;;;19.40;99.90;;;;;;5008162;28;20244;-52
2022/06/02 11:44:30;;;;;;;65.85;13.00;;;19.50;99.90;;;;;;5002463;28;20220;-52
2022/06/02 11:47:19;;;;;;;63.40;13.48;;;19.00;99.90;;;;;;5016619;28;20212;-52
2022/06/02 11:50:00;;;;;;;148.57;29.17;;;18.90;99.90;;;;;;5004951;28;20223;-52
2022/06/02 11:52:38;;;;;;;91.47;18.33;;;18.90;99.90;;;;;;5013708;28;20215;-52
2022/06/02 11:55:49;;;;;;;102.95;20.60;;;19.30;99.90;;;;;;5016872;28;20253;-52
2022/06/02 11:58:29;;;;;;;96.07;19.13;;;19.70;99.90;;;;;;5013906;28;20253;-52
2022/06/02 12:01:06;;;;;;;73.40;15.05;;;19.50;99.90;;;;;;5018245;28;20654;-53
2022/06/02 12:03:53;;;;;;;125.60;25.45;;;19.50;95.90;;;;;;5014642;28;20633;-53
2022/06/02 12:06:45;;;;;;;122.18;24.20;;;20.20;47.40;;;;;;5012089;28;20209;-52
2022/06/02 12:09:34;;;;;;;112.50;23.00;;;20.50;35.10;;;;;;5013754;28;20229;-53
2022/06/02 12:12:12;;;;;;;97.50;20.45;;;20.70;99.90;;;;;;5012559;28;20219;-53
2022/06/02 12:15:10;;;;;;;87.38;17.98;;;20.50;99.90;;;;;;5013027;28;20195;-53
2022/06/02 12:17:59;;;;;;;116.20;24.05;;;20.50;40.70;;;;;;5017973;28;20239;-52
2022/06/02 12:20:55;;;;;;;108.30;21.50;;;20.70;99.90;;;;;;5014390;28;20212;-53
2022/06/02 12:24:04;;;;;;;105.55;22.33;;;21.00;1.00;;;;;;5010091;28;20393;-53
2022/06/02 12:26:42;;;;;;;95.95;22.05;;;21.10;99.90;;;;;;5014532;28;20700;-53
2022/06/02 12:29:18;;;;;;;106.55;24.77;;;21.50;99.90;;;;;;5011786;28;20231;-53
2022/06/02 12:31:44;;;;;;;109.43;27.85;;;;;;;;;;5015896;28;20267;-53
2022/06/02 12:34:18;;;;;;;104.28;28.17;;;22.00;1.00;;;;;;5012619;28;20224;-53
2022/06/02 12:36:59;;;;;;;164.98;43.05;;;22.10;1.00;;;;;;5009020;28;20218;-53
2022/06/02 12:39:39;;;;;;;93.60;23.35;;;22.50;99.90;;;;;;5015009;28;20689;-53
2022/06/02 12:42:39;;;;;;;136.07;35.53;;;22.70;1.00;;;;;;5021677;28;21043;-53
2022/06/02 12:45:42;;;;;;;73.53;23.33;;;22.70;1.00;;;;;;5013147;28;20242;-53
2022/06/02 12:48:36;;;;;;;122.15;36.80;;;22.90;1.00;;;;;;5015743;28;20216;-52
2022/06/02 12:51:35;;;;;;;64.95;25.25;;;22.60;99.90;;;;;;5021614;28;20561;-52
2022/06/02 12:54:43;;;;;;;94.22;31.63;;;22.60;1.00;;;;;;5019692;28;20232;-53
2022/06/02 12:57:28;;;;;;;69.07;21.85;;;22.70;99.90;;;;;;5020364;28;20323;-53
2022/06/02 12:59:56;;;;;;;66.63;22.05;;;22.30;1.00;;;;;;5021754;28;20562;-53
2022/06/02 13:02:52;;;;;;;66.95;23.52;;;21.40;99.90;;;;;;5018159;28;20181;-53
2022/06/02 13:05:48;;;;;;;81.05;29.95;;;21.40;99.90;;;;;;5015510;28;20274;-53
2022/06/02 13:08:32;;;;;;;46.17;17.38;;;21.40;99.90;;;;;;5023884;28;20216;-53
2022/06/02 13:11:29;;;;;;;75.53;29.30;;;22.10;99.90;;;;;;5023620;28;20584;-52
2022/06/02 13:14:24;;;;;;;87.43;29.02;;;21.90;99.90;;;;;;5016700;28;20216;-53
2022/06/02 13:17:05;;;;;;;89.38;28.27;;;22.20;1.00;;;;;;5018736;28;20240;-53
2022/06/02 13:20:00;;;;;;;63.92;20.35;;;22.10;1.00;;;;;;5019385;28;20737;-52
2022/06/02 13:22:48;;;;;;;59.42;19.73;;;21.60;1.00;;;;;;5013319;28;20251;-52
2022/06/02 13:25:31;;;;;;;93.60;28.02;;;21.10;99.90;;;;;;5015469;28;20239;-52
2022/06/02 13:28:25;;;;;;;65.65;23.45;;;21.80;1.00;;;;;;5015767;28;20235;-53
2022/06/02 13:31:10;;;;;;;125.07;72.68;;;21.70;1.00;;;;;;5016321;28;20300;-53
2022/06/02 13:34:10;;;;;;;121.93;108.90;;;21.70;99.90;;;;;;5018862;28;20224;-53
2022/06/02 13:36:58;;;;;;;143.00;123.32;;;22.00;1.00;;;;;;5018738;28;20220;-53
2022/06/02 13:39:42;;;;;;;177.07;142.13;;;22.30;99.90;;;;;;5019700;28;20212;-53
2022/06/02 13:42:44;;;;;;;187.80;149.68;;;22.10;1.00;;;;;;5020311;28;20303;-53
2022/06/02 13:45:40;;;;;;;174.05;141.48;;;21.60;99.90;;;;;;5022856;28;20246;-53
2022/06/02 13:48:43;;;;;;;305.83;187.50;;;21.60;1.00;;;;;;5010649;28;20240;-53
2022/06/02 13:51:46;;;;;;;142.65;125.15;;;21.30;99.90;;;;;;5014333;28;20216;-53
2022/06/02 13:57:43;;;;;;;155.57;127.05;;;22.10;1.00;;;;;;5028992;28;20589;-53
2022/06/02 14:00:28;;;;;;;165.68;132.20;;;22.20;99.90;;;;;;5029954;28;20220;-53
2022/06/02 14:03:28;;;;;;;278.13;178.30;;;22.80;99.90;;;;;;5030256;28;20326;-53
2022/06/02 14:06:05;;;;;;;192.18;153.27;;;23.60;99.90;;;;;;5030213;28;20608;-53
2022/06/02 14:08:57;;;;;;;188.30;161.18;;;23.80;99.90;;;;;;5030498;28;20188;-53
2022/06/02 14:11:42;;;;;;;187.20;162.05;;;23.70;99.90;;;;;;5030553;28;20214;-53
2022/06/02 14:14:16;;;;;;;239.23;173.65;;;23.10;1.00;;;;;;5027528;28;20215;-53